sensor_id;sensor_type;location;lat;lon;timestamp;P1;durP1;ratioP1;P2;durP2;ratioP2
25946;SDS011;13745;51.470;9.894;2022-10-17T00:01:44;5.45;;;2.00;;
25946;SDS011;13745;51.470;9.894;2022-10-17T00:07:18;3.33;;;1.80;;
25946;SDS011;13745;51.470;9.894;2022-10-17T00:10:04;3.25;;;1.92;;
25946;SDS011;13745;51.470;9.894;2022-10-17T00:12:51;5.85;;;2.00;;
25946;SDS011;13745;51.470;9.894;2022-10-17T00:15:37;3.20;;;1.90;;
25946;SDS011;13745;51.470;9.894;2022-10-17T00:18:23;2.60;;;1.90;;
25946;SDS011;13745;51.470;9.894;2022-10-17T00:21:15;1.75;;;1.60;;
25946;SDS011;13745;51.470;9.894;2022-10-17T00:24:01;2.35;;;1.83;;
25946;SDS011;13745;51.470;9.894;2022-10-17T00:26:47;3.90;;;1.85;;
25946;SDS011;13745;51.470;9.894;2022-10-17T00:29:33;2.70;;;2.00;;
25946;SDS011;13745;51.470;9.894;2022-10-17T00:32:19;2.45;;;1.73;;
25946;SDS011;13745;51.470;9.894;2022-10-17T00:35:05;2.42;;;1.90;;
25946;SDS011;13745;51.470;9.894;2022-10-17T00:37:52;3.38;;;2.33;;
25946;SDS011;13745;51.470;9.894;2022-10-17T00:40:39;2.17;;;1.90;;
25946;SDS011;13745;51.470;9.894;2022-10-17T00:43:25;3.90;;;2.08;;
25946;SDS011;13745;51.470;9.894;2022-10-17T00:46:12;5.10;;;2.10;;
25946;SDS011;13745;51.470;9.894;2022-10-17T00:48:59;8.10;;;2.50;;
25946;SDS011;13745;51.470;9.894;2022-10-17T00:51:50;3.03;;;2.50;;
25946;SDS011;13745;51.470;9.894;2022-10-17T00:54:42;4.00;;;1.98;;
25946;SDS011;13745;51.470;9.894;2022-10-17T00:57:30;3.10;;;2.15;;
25946;SDS011;13745;51.470;9.894;2022-10-17T01:00:17;2.97;;;2.50;;
25946;SDS011;13745;51.470;9.894;2022-10-17T01:03:03;3.63;;;2.00;;
25946;SDS011;13745;51.470;9.894;2022-10-17T01:05:49;9.07;;;2.88;;
25946;SDS011;13745;51.470;9.894;2022-10-17T01:08:35;4.63;;;2.70;;
25946;SDS011;13745;51.470;9.894;2022-10-17T01:11:27;6.05;;;2.10;;
25946;SDS011;13745;51.470;9.894;2022-10-17T01:14:21;2.50;;;2.17;;
25946;SDS011;13745;51.470;9.894;2022-10-17T01:17:15;6.60;;;2.40;;
25946;SDS011;13745;51.470;9.894;2022-10-17T01:20:21;4.10;;;2.25;;
25946;SDS011;13745;51.470;9.894;2022-10-17T01:23:44;4.90;;;1.75;;
25946;SDS011;13745;51.470;9.894;2022-10-17T01:26:57;3.97;;;2.20;;
25946;SDS011;13745;51.470;9.894;2022-10-17T01:33:22;4.63;;;2.20;;
25946;SDS011;13745;51.470;9.894;2022-10-17T01:36:21;4.95;;;2.28;;
25946;SDS011;13745;51.470;9.894;2022-10-17T01:39:18;4.93;;;2.25;;
25946;SDS011;13745;51.470;9.894;2022-10-17T01:42:10;2.50;;;2.30;;
25946;SDS011;13745;51.470;9.894;2022-10-17T01:45:02;3.30;;;2.10;;
25946;SDS011;13745;51.470;9.894;2022-10-17T01:47:53;4.07;;;2.17;;
25946;SDS011;13745;51.470;9.894;2022-10-17T01:50:45;2.72;;;2.08;;
25946;SDS011;13745;51.470;9.894;2022-10-17T01:53:36;4.93;;;2.00;;
25946;SDS011;13745;51.470;9.894;2022-10-17T01:56:30;4.65;;;2.08;;
25946;SDS011;13745;51.470;9.894;2022-10-17T01:59:19;11.27;;;2.20;;
25946;SDS011;13745;51.470;9.894;2022-10-17T02:02:07;3.78;;;1.98;;
25946;SDS011;13745;51.470;9.894;2022-10-17T02:04:55;2.65;;;2.45;;
25946;SDS011;13745;51.470;9.894;2022-10-17T02:07:43;6.07;;;2.65;;
25946;SDS011;13745;51.470;9.894;2022-10-17T02:10:30;2.20;;;1.85;;
25946;SDS011;13745;51.470;9.894;2022-10-17T02:13:22;4.15;;;2.45;;
25946;SDS011;13745;51.470;9.894;2022-10-17T02:16:20;4.15;;;2.20;;
25946;SDS011;13745;51.470;9.894;2022-10-17T02:19:27;2.03;;;1.80;;
25946;SDS011;13745;51.470;9.894;2022-10-17T02:22:24;2.28;;;2.08;;
25946;SDS011;13745;51.470;9.894;2022-10-17T02:25:22;6.30;;;2.10;;
25946;SDS011;13745;51.470;9.894;2022-10-17T02:28:18;2.95;;;1.90;;
25946;SDS011;13745;51.470;9.894;2022-10-17T02:31:07;8.05;;;1.98;;
25946;SDS011;13745;51.470;9.894;2022-10-17T02:34:01;5.65;;;2.42;;
25946;SDS011;13745;51.470;9.894;2022-10-17T02:36:50;3.72;;;2.30;;
25946;SDS011;13745;51.470;9.894;2022-10-17T02:39:39;2.75;;;2.10;;
25946;SDS011;13745;51.470;9.894;2022-10-17T02:42:30;7.63;;;2.10;;
25946;SDS011;13745;51.470;9.894;2022-10-17T02:45:17;4.57;;;2.45;;
25946;SDS011;13745;51.470;9.894;2022-10-17T02:48:04;3.53;;;1.88;;
25946;SDS011;13745;51.470;9.894;2022-10-17T02:50:56;3.10;;;1.85;;
25946;SDS011;13745;51.470;9.894;2022-10-17T02:53:50;3.78;;;1.50;;
25946;SDS011;13745;51.470;9.894;2022-10-17T02:56:42;3.35;;;2.10;;
25946;SDS011;13745;51.470;9.894;2022-10-17T02:59:35;3.47;;;2.03;;
25946;SDS011;13745;51.470;9.894;2022-10-17T03:02:21;4.28;;;2.30;;
25946;SDS011;13745;51.470;9.894;2022-10-17T03:05:08;3.35;;;2.13;;
25946;SDS011;13745;51.470;9.894;2022-10-17T03:07:55;3.10;;;2.45;;
25946;SDS011;13745;51.470;9.894;2022-10-17T03:10:42;2.42;;;2.10;;
25946;SDS011;13745;51.470;9.894;2022-10-17T03:13:28;3.65;;;1.83;;
25946;SDS011;13745;51.470;9.894;2022-10-17T03:16:16;4.40;;;2.10;;
25946;SDS011;13745;51.470;9.894;2022-10-17T03:19:02;6.53;;;2.03;;
25946;SDS011;13745;51.470;9.894;2022-10-17T03:21:49;1.85;;;1.73;;
25946;SDS011;13745;51.470;9.894;2022-10-17T03:24:35;2.85;;;1.90;;
25946;SDS011;13745;51.470;9.894;2022-10-17T03:27:21;3.03;;;2.03;;
25946;SDS011;13745;51.470;9.894;2022-10-17T03:30:08;4.18;;;2.05;;
25946;SDS011;13745;51.470;9.894;2022-10-17T03:32:55;9.55;;;2.08;;
25946;SDS011;13745;51.470;9.894;2022-10-17T03:35:41;6.55;;;2.33;;
25946;SDS011;13745;51.470;9.894;2022-10-17T03:38:28;3.83;;;2.10;;
25946;SDS011;13745;51.470;9.894;2022-10-17T03:41:13;7.25;;;2.22;;
25946;SDS011;13745;51.470;9.894;2022-10-17T03:44:00;5.30;;;2.08;;
25946;SDS011;13745;51.470;9.894;2022-10-17T03:46:46;4.15;;;1.70;;
25946;SDS011;13745;51.470;9.894;2022-10-17T03:49:33;6.57;;;1.88;;
25946;SDS011;13745;51.470;9.894;2022-10-17T03:52:19;3.30;;;1.67;;
25946;SDS011;13745;51.470;9.894;2022-10-17T03:55:05;2.17;;;1.85;;
25946;SDS011;13745;51.470;9.894;2022-10-17T03:57:52;4.43;;;2.08;;
25946;SDS011;13745;51.470;9.894;2022-10-17T04:00:39;1.80;;;1.70;;
25946;SDS011;13745;51.470;9.894;2022-10-17T04:03:25;4.63;;;1.95;;
25946;SDS011;13745;51.470;9.894;2022-10-17T04:06:12;4.35;;;1.98;;
25946;SDS011;13745;51.470;9.894;2022-10-17T04:09:01;2.75;;;2.00;;
25946;SDS011;13745;51.470;9.894;2022-10-17T04:12:11;6.13;;;2.08;;
25946;SDS011;13745;51.470;9.894;2022-10-17T04:14:57;2.55;;;2.22;;
25946;SDS011;13745;51.470;9.894;2022-10-17T04:17:43;3.60;;;2.30;;
25946;SDS011;13745;51.470;9.894;2022-10-17T04:20:29;2.28;;;1.85;;
25946;SDS011;13745;51.470;9.894;2022-10-17T04:23:17;4.47;;;1.92;;
25946;SDS011;13745;51.470;9.894;2022-10-17T04:26:03;4.32;;;2.08;;
25946;SDS011;13745;51.470;9.894;2022-10-17T04:28:50;3.83;;;2.30;;
25946;SDS011;13745;51.470;9.894;2022-10-17T04:31:36;3.95;;;2.22;;
25946;SDS011;13745;51.470;9.894;2022-10-17T04:34:48;5.05;;;1.90;;
25946;SDS011;13745;51.470;9.894;2022-10-17T04:37:36;3.80;;;2.22;;
25946;SDS011;13745;51.470;9.894;2022-10-17T04:40:30;2.67;;;1.70;;
25946;SDS011;13745;51.470;9.894;2022-10-17T04:43:17;3.88;;;2.28;;
25946;SDS011;13745;51.470;9.894;2022-10-17T04:46:04;4.93;;;1.77;;
25946;SDS011;13745;51.470;9.894;2022-10-17T04:48:52;4.15;;;1.58;;
25946;SDS011;13745;51.470;9.894;2022-10-17T04:51:38;5.25;;;2.00;;
25946;SDS011;13745;51.470;9.894;2022-10-17T04:54:40;6.30;;;2.20;;
25946;SDS011;13745;51.470;9.894;2022-10-17T04:57:29;5.22;;;2.15;;
25946;SDS011;13745;51.470;9.894;2022-10-17T05:00:23;3.58;;;1.80;;
25946;SDS011;13745;51.470;9.894;2022-10-17T05:03:16;3.47;;;2.13;;
25946;SDS011;13745;51.470;9.894;2022-10-17T05:06:02;4.97;;;2.00;;
25946;SDS011;13745;51.470;9.894;2022-10-17T05:08:49;4.53;;;1.75;;
25946;SDS011;13745;51.470;9.894;2022-10-17T05:11:37;2.72;;;2.03;;
25946;SDS011;13745;51.470;9.894;2022-10-17T05:14:25;2.97;;;2.13;;
25946;SDS011;13745;51.470;9.894;2022-10-17T05:17:10;9.80;;;2.38;;
25946;SDS011;13745;51.470;9.894;2022-10-17T05:19:57;6.68;;;2.22;;
25946;SDS011;13745;51.470;9.894;2022-10-17T05:22:42;2.47;;;2.20;;
25946;SDS011;13745;51.470;9.894;2022-10-17T05:25:29;3.72;;;2.20;;
25946;SDS011;13745;51.470;9.894;2022-10-17T05:28:15;2.67;;;1.90;;
25946;SDS011;13745;51.470;9.894;2022-10-17T05:31:03;2.85;;;2.10;;
25946;SDS011;13745;51.470;9.894;2022-10-17T05:33:50;3.95;;;2.05;;
25946;SDS011;13745;51.470;9.894;2022-10-17T05:36:35;4.78;;;2.22;;
25946;SDS011;13745;51.470;9.894;2022-10-17T05:39:23;5.07;;;2.28;;
25946;SDS011;13745;51.470;9.894;2022-10-17T05:42:09;3.30;;;1.92;;
25946;SDS011;13745;51.470;9.894;2022-10-17T05:44:55;4.85;;;1.90;;
25946;SDS011;13745;51.470;9.894;2022-10-17T05:47:44;4.97;;;2.00;;
25946;SDS011;13745;51.470;9.894;2022-10-17T05:50:30;3.95;;;2.22;;
25946;SDS011;13745;51.470;9.894;2022-10-17T05:53:21;3.70;;;1.90;;
25946;SDS011;13745;51.470;9.894;2022-10-17T05:56:09;2.72;;;2.10;;
25946;SDS011;13745;51.470;9.894;2022-10-17T05:58:56;5.68;;;2.28;;
25946;SDS011;13745;51.470;9.894;2022-10-17T06:01:55;4.82;;;2.15;;
25946;SDS011;13745;51.470;9.894;2022-10-17T06:04:43;10.23;;;2.33;;
25946;SDS011;13745;51.470;9.894;2022-10-17T06:07:31;6.30;;;2.28;;
25946;SDS011;13745;51.470;9.894;2022-10-17T06:10:19;2.17;;;1.80;;
25946;SDS011;13745;51.470;9.894;2022-10-17T06:13:06;2.03;;;1.88;;
25946;SDS011;13745;51.470;9.894;2022-10-17T06:15:52;4.05;;;2.20;;
25946;SDS011;13745;51.470;9.894;2022-10-17T06:18:38;8.05;;;1.95;;
25946;SDS011;13745;51.470;9.894;2022-10-17T06:21:25;4.75;;;1.90;;
25946;SDS011;13745;51.470;9.894;2022-10-17T06:24:21;7.22;;;2.78;;
25946;SDS011;13745;51.470;9.894;2022-10-17T06:27:10;4.40;;;1.80;;
25946;SDS011;13745;51.470;9.894;2022-10-17T06:29:55;6.10;;;1.90;;
25946;SDS011;13745;51.470;9.894;2022-10-17T06:32:41;6.32;;;1.88;;
25946;SDS011;13745;51.470;9.894;2022-10-17T06:35:28;2.47;;;2.10;;
25946;SDS011;13745;51.470;9.894;2022-10-17T06:38:16;4.55;;;1.75;;
25946;SDS011;13745;51.470;9.894;2022-10-17T06:41:02;4.05;;;1.80;;
25946;SDS011;13745;51.470;9.894;2022-10-17T06:43:51;5.40;;;1.73;;
25946;SDS011;13745;51.470;9.894;2022-10-17T06:47:06;4.00;;;2.00;;
25946;SDS011;13745;51.470;9.894;2022-10-17T06:49:52;4.05;;;1.83;;
25946;SDS011;13745;51.470;9.894;2022-10-17T06:52:59;4.80;;;2.13;;
25946;SDS011;13745;51.470;9.894;2022-10-17T06:56:09;2.05;;;1.80;;
25946;SDS011;13745;51.470;9.894;2022-10-17T06:59:15;2.35;;;2.08;;
25946;SDS011;13745;51.470;9.894;2022-10-17T07:02:10;5.32;;;2.30;;
25946;SDS011;13745;51.470;9.894;2022-10-17T07:04:56;1.92;;;1.77;;
25946;SDS011;13745;51.470;9.894;2022-10-17T07:07:41;2.58;;;2.03;;
25946;SDS011;13745;51.470;9.894;2022-10-17T07:10:27;6.10;;;2.10;;
25946;SDS011;13745;51.470;9.894;2022-10-17T07:13:14;2.38;;;2.17;;
25946;SDS011;13745;51.470;9.894;2022-10-17T07:16:00;5.60;;;2.15;;
25946;SDS011;13745;51.470;9.894;2022-10-17T07:18:48;4.10;;;2.10;;
25946;SDS011;13745;51.470;9.894;2022-10-17T07:21:37;4.00;;;2.00;;
25946;SDS011;13745;51.470;9.894;2022-10-17T07:24:24;8.32;;;2.50;;
25946;SDS011;13745;51.470;9.894;2022-10-17T07:27:15;4.15;;;1.85;;
25946;SDS011;13745;51.470;9.894;2022-10-17T07:30:02;2.13;;;1.33;;
25946;SDS011;13745;51.470;9.894;2022-10-17T07:32:57;4.68;;;2.85;;
25946;SDS011;13745;51.470;9.894;2022-10-17T07:35:43;2.97;;;1.92;;
25946;SDS011;13745;51.470;9.894;2022-10-17T07:38:29;2.70;;;1.67;;
25946;SDS011;13745;51.470;9.894;2022-10-17T07:41:15;4.82;;;1.67;;
25946;SDS011;13745;51.470;9.894;2022-10-17T07:44:03;4.22;;;1.63;;
25946;SDS011;13745;51.470;9.894;2022-10-17T07:46:54;4.65;;;1.85;;
25946;SDS011;13745;51.470;9.894;2022-10-17T07:49:41;5.38;;;1.90;;
25946;SDS011;13745;51.470;9.894;2022-10-17T07:52:28;4.32;;;1.65;;
25946;SDS011;13745;51.470;9.894;2022-10-17T07:55:14;5.07;;;1.90;;
25946;SDS011;13745;51.470;9.894;2022-10-17T07:58:00;3.55;;;1.85;;
25946;SDS011;13745;51.470;9.894;2022-10-17T08:00:46;5.65;;;1.90;;
25946;SDS011;13745;51.470;9.894;2022-10-17T08:03:35;6.40;;;1.90;;
25946;SDS011;13745;51.470;9.894;2022-10-17T08:06:21;6.50;;;1.70;;
25946;SDS011;13745;51.470;9.894;2022-10-17T08:09:07;2.15;;;1.60;;
25946;SDS011;13745;51.470;9.894;2022-10-17T08:11:53;5.50;;;1.65;;
25946;SDS011;13745;51.470;9.894;2022-10-17T08:14:39;3.88;;;1.80;;
25946;SDS011;13745;51.470;9.894;2022-10-17T08:17:25;7.60;;;1.77;;
25946;SDS011;13745;51.470;9.894;2022-10-17T08:20:13;4.18;;;1.60;;
25946;SDS011;13745;51.470;9.894;2022-10-17T08:22:59;5.78;;;1.80;;
25946;SDS011;13745;51.470;9.894;2022-10-17T08:25:45;10.23;;;1.73;;
25946;SDS011;13745;51.470;9.894;2022-10-17T08:28:33;3.17;;;2.00;;
25946;SDS011;13745;51.470;9.894;2022-10-17T08:31:18;7.47;;;1.67;;
25946;SDS011;13745;51.470;9.894;2022-10-17T08:34:05;2.00;;;1.40;;
25946;SDS011;13745;51.470;9.894;2022-10-17T08:36:52;4.15;;;1.40;;
25946;SDS011;13745;51.470;9.894;2022-10-17T08:39:38;1.77;;;1.65;;
25946;SDS011;13745;51.470;9.894;2022-10-17T08:42:37;2.60;;;1.58;;
25946;SDS011;13745;51.470;9.894;2022-10-17T08:45:44;6.90;;;1.80;;
25946;SDS011;13745;51.470;9.894;2022-10-17T08:48:36;3.38;;;1.55;;
25946;SDS011;13745;51.470;9.894;2022-10-17T08:51:25;1.40;;;1.10;;
25946;SDS011;13745;51.470;9.894;2022-10-17T08:54:17;2.38;;;1.80;;
25946;SDS011;13745;51.470;9.894;2022-10-17T08:57:08;2.85;;;1.30;;
25946;SDS011;13745;51.470;9.894;2022-10-17T08:59:56;4.60;;;1.40;;
25946;SDS011;13745;51.470;9.894;2022-10-17T09:02:45;3.17;;;1.40;;
25946;SDS011;13745;51.470;9.894;2022-10-17T09:05:43;3.97;;;1.27;;
25946;SDS011;13745;51.470;9.894;2022-10-17T09:08:36;3.28;;;1.23;;
25946;SDS011;13745;51.470;9.894;2022-10-17T09:11:31;5.25;;;1.60;;
25946;SDS011;13745;51.470;9.894;2022-10-17T09:14:29;3.30;;;1.38;;
25946;SDS011;13745;51.470;9.894;2022-10-17T09:17:34;5.38;;;1.52;;
25946;SDS011;13745;51.470;9.894;2022-10-17T09:20:25;3.22;;;1.20;;
25946;SDS011;13745;51.470;9.894;2022-10-17T09:23:15;2.92;;;1.30;;
25946;SDS011;13745;51.470;9.894;2022-10-17T09:26:04;5.88;;;1.52;;
25946;SDS011;13745;51.470;9.894;2022-10-17T09:28:55;6.47;;;1.40;;
25946;SDS011;13745;51.470;9.894;2022-10-17T09:31:44;1.85;;;1.30;;
25946;SDS011;13745;51.470;9.894;2022-10-17T09:34:33;2.88;;;1.38;;
25946;SDS011;13745;51.470;9.894;2022-10-17T09:37:21;3.45;;;1.42;;
25946;SDS011;13745;51.470;9.894;2022-10-17T09:40:15;3.67;;;1.40;;
25946;SDS011;13745;51.470;9.894;2022-10-17T09:43:06;6.68;;;1.40;;
25946;SDS011;13745;51.470;9.894;2022-10-17T09:45:58;4.43;;;1.25;;
25946;SDS011;13745;51.470;9.894;2022-10-17T09:48:50;1.67;;;1.27;;
25946;SDS011;13745;51.470;9.894;2022-10-17T09:51:39;3.78;;;1.40;;
25946;SDS011;13745;51.470;9.894;2022-10-17T09:54:26;6.18;;;1.27;;
25946;SDS011;13745;51.470;9.894;2022-10-17T09:57:17;6.68;;;1.52;;
25946;SDS011;13745;51.470;9.894;2022-10-17T10:00:04;3.75;;;1.13;;
25946;SDS011;13745;51.470;9.894;2022-10-17T10:03:09;2.83;;;1.58;;
25946;SDS011;13745;51.470;9.894;2022-10-17T10:05:59;7.53;;;1.58;;
25946;SDS011;13745;51.470;9.894;2022-10-17T10:08:48;6.97;;;1.40;;
25946;SDS011;13745;51.470;9.894;2022-10-17T10:11:45;3.85;;;1.63;;
25946;SDS011;13745;51.470;9.894;2022-10-17T10:14:34;1.38;;;1.20;;
25946;SDS011;13745;51.470;9.894;2022-10-17T10:17:25;5.60;;;1.50;;
25946;SDS011;13745;51.470;9.894;2022-10-17T10:20:31;2.53;;;1.60;;
25946;SDS011;13745;51.470;9.894;2022-10-17T10:23:18;4.82;;;1.50;;
25946;SDS011;13745;51.470;9.894;2022-10-17T10:26:11;3.58;;;1.30;;
25946;SDS011;13745;51.470;9.894;2022-10-17T10:29:03;3.70;;;1.35;;
25946;SDS011;13745;51.470;9.894;2022-10-17T10:31:50;5.25;;;1.20;;
25946;SDS011;13745;51.470;9.894;2022-10-17T10:34:47;4.05;;;1.42;;
25946;SDS011;13745;51.470;9.894;2022-10-17T10:37:38;8.18;;;1.60;;
25946;SDS011;13745;51.470;9.894;2022-10-17T10:40:28;2.70;;;1.20;;
25946;SDS011;13745;51.470;9.894;2022-10-17T10:43:21;5.50;;;1.30;;
25946;SDS011;13745;51.470;9.894;2022-10-17T10:46:16;2.90;;;1.63;;
25946;SDS011;13745;51.470;9.894;2022-10-17T10:49:04;6.75;;;1.40;;
25946;SDS011;13745;51.470;9.894;2022-10-17T10:52:26;5.15;;;1.35;;
25946;SDS011;13745;51.470;9.894;2022-10-17T10:55:21;3.55;;;1.33;;
25946;SDS011;13745;51.470;9.894;2022-10-17T10:58:23;4.80;;;1.02;;
25946;SDS011;13745;51.470;9.894;2022-10-17T11:01:15;2.78;;;1.13;;
25946;SDS011;13745;51.470;9.894;2022-10-17T11:04:16;1.75;;;1.00;;
25946;SDS011;13745;51.470;9.894;2022-10-17T11:07:10;5.00;;;1.10;;
25946;SDS011;13745;51.470;9.894;2022-10-17T11:10:02;2.70;;;1.10;;
25946;SDS011;13745;51.470;9.894;2022-10-17T11:12:56;2.95;;;1.08;;
25946;SDS011;13745;51.470;9.894;2022-10-17T11:15:48;2.83;;;1.10;;
25946;SDS011;13745;51.470;9.894;2022-10-17T11:18:41;2.83;;;0.90;;
25946;SDS011;13745;51.470;9.894;2022-10-17T11:21:35;1.70;;;1.00;;
25946;SDS011;13745;51.470;9.894;2022-10-17T11:24:28;2.65;;;1.10;;
25946;SDS011;13745;51.470;9.894;2022-10-17T11:27:19;2.50;;;1.30;;
25946;SDS011;13745;51.470;9.894;2022-10-17T11:30:08;2.65;;;1.00;;
25946;SDS011;13745;51.470;9.894;2022-10-17T11:32:58;1.50;;;1.00;;
25946;SDS011;13745;51.470;9.894;2022-10-17T11:35:48;2.58;;;1.48;;
25946;SDS011;13745;51.470;9.894;2022-10-17T11:38:40;5.57;;;1.10;;
25946;SDS011;13745;51.470;9.894;2022-10-17T11:41:31;4.00;;;1.17;;
25946;SDS011;13745;51.470;9.894;2022-10-17T11:44:21;4.63;;;1.00;;
25946;SDS011;13745;51.470;9.894;2022-10-17T11:47:12;5.50;;;1.23;;
25946;SDS011;13745;51.470;9.894;2022-10-17T11:50:11;4.85;;;1.27;;
25946;SDS011;13745;51.470;9.894;2022-10-17T11:53:05;1.90;;;1.10;;
25946;SDS011;13745;51.470;9.894;2022-10-17T11:55:56;2.08;;;1.17;;
25946;SDS011;13745;51.470;9.894;2022-10-17T11:58:45;3.63;;;1.30;;
25946;SDS011;13745;51.470;9.894;2022-10-17T12:01:37;5.40;;;1.10;;
25946;SDS011;13745;51.470;9.894;2022-10-17T12:04:33;7.15;;;1.20;;
25946;SDS011;13745;51.470;9.894;2022-10-17T12:07:33;2.75;;;1.40;;
25946;SDS011;13745;51.470;9.894;2022-10-17T12:10:31;3.55;;;1.20;;
25946;SDS011;13745;51.470;9.894;2022-10-17T12:13:45;5.73;;;1.00;;
25946;SDS011;13745;51.470;9.894;2022-10-17T12:16:43;3.00;;;1.33;;
25946;SDS011;13745;51.470;9.894;2022-10-17T12:19:32;2.45;;;1.20;;
25946;SDS011;13745;51.470;9.894;2022-10-17T12:22:20;6.00;;;1.17;;
25946;SDS011;13745;51.470;9.894;2022-10-17T12:25:15;2.85;;;1.27;;
25946;SDS011;13745;51.470;9.894;2022-10-17T12:28:13;3.05;;;1.23;;
25946;SDS011;13745;51.470;9.894;2022-10-17T12:31:02;1.35;;;0.90;;
25946;SDS011;13745;51.470;9.894;2022-10-17T12:33:51;6.25;;;1.10;;
25946;SDS011;13745;51.470;9.894;2022-10-17T12:36:39;2.25;;;1.33;;
25946;SDS011;13745;51.470;9.894;2022-10-17T12:42:29;1.92;;;1.15;;
25946;SDS011;13745;51.470;9.894;2022-10-17T12:45:43;3.60;;;1.20;;
25946;SDS011;13745;51.470;9.894;2022-10-17T12:52:09;3.75;;;1.15;;
25946;SDS011;13745;51.470;9.894;2022-10-17T12:55:08;2.80;;;1.15;;
25946;SDS011;13745;51.470;9.894;2022-10-17T12:57:57;3.33;;;1.13;;
25946;SDS011;13745;51.470;9.894;2022-10-17T13:00:48;2.30;;;1.05;;
25946;SDS011;13745;51.470;9.894;2022-10-17T13:03:39;2.80;;;1.10;;
25946;SDS011;13745;51.470;9.894;2022-10-17T13:06:28;3.42;;;1.05;;
25946;SDS011;13745;51.470;9.894;2022-10-17T13:09:19;5.10;;;1.40;;
25946;SDS011;13745;51.470;9.894;2022-10-17T13:12:09;4.55;;;1.33;;
25946;SDS011;13745;51.470;9.894;2022-10-17T13:14:58;2.40;;;1.20;;
25946;SDS011;13745;51.470;9.894;2022-10-17T13:17:56;5.22;;;1.20;;
25946;SDS011;13745;51.470;9.894;2022-10-17T13:20:52;4.78;;;1.23;;
25946;SDS011;13745;51.470;9.894;2022-10-17T13:23:39;2.30;;;1.25;;
25946;SDS011;13745;51.470;9.894;2022-10-17T13:26:27;2.90;;;1.15;;
25946;SDS011;13745;51.470;9.894;2022-10-17T13:29:13;1.60;;;1.27;;
25946;SDS011;13745;51.470;9.894;2022-10-17T13:32:01;2.85;;;1.38;;
25946;SDS011;13745;51.470;9.894;2022-10-17T13:35:04;2.63;;;1.45;;
25946;SDS011;13745;51.470;9.894;2022-10-17T13:37:51;2.88;;;1.10;;
25946;SDS011;13745;51.470;9.894;2022-10-17T13:40:40;4.40;;;1.35;;
25946;SDS011;13745;51.470;9.894;2022-10-17T13:43:29;6.18;;;1.33;;
25946;SDS011;13745;51.470;9.894;2022-10-17T13:46:21;5.57;;;1.10;;
25946;SDS011;13745;51.470;9.894;2022-10-17T13:49:14;8.77;;;1.25;;
25946;SDS011;13745;51.470;9.894;2022-10-17T13:52:04;7.60;;;1.20;;
25946;SDS011;13745;51.470;9.894;2022-10-17T13:54:52;2.45;;;1.45;;
25946;SDS011;13745;51.470;9.894;2022-10-17T13:57:38;10.70;;;1.58;;
25946;SDS011;13745;51.470;9.894;2022-10-17T14:00:25;4.70;;;1.48;;
25946;SDS011;13745;51.470;9.894;2022-10-17T14:03:11;3.97;;;1.48;;
25946;SDS011;13745;51.470;9.894;2022-10-17T14:05:59;2.15;;;1.05;;
25946;SDS011;13745;51.470;9.894;2022-10-17T14:08:50;3.20;;;1.10;;
25946;SDS011;13745;51.470;9.894;2022-10-17T14:11:39;6.28;;;1.30;;
25946;SDS011;13745;51.470;9.894;2022-10-17T14:14:27;4.65;;;1.35;;
25946;SDS011;13745;51.470;9.894;2022-10-17T14:17:16;3.30;;;1.27;;
25946;SDS011;13745;51.470;9.894;2022-10-17T14:20:15;7.10;;;1.38;;
25946;SDS011;13745;51.470;9.894;2022-10-17T14:23:02;3.05;;;1.30;;
25946;SDS011;13745;51.470;9.894;2022-10-17T14:25:48;5.40;;;1.50;;
25946;SDS011;13745;51.470;9.894;2022-10-17T14:29:02;5.88;;;1.50;;
25946;SDS011;13745;51.470;9.894;2022-10-17T14:31:49;3.25;;;1.20;;
25946;SDS011;13745;51.470;9.894;2022-10-17T14:34:44;4.40;;;1.27;;
25946;SDS011;13745;51.470;9.894;2022-10-17T14:37:40;2.55;;;1.52;;
25946;SDS011;13745;51.470;9.894;2022-10-17T14:40:28;3.75;;;1.42;;
25946;SDS011;13745;51.470;9.894;2022-10-17T14:43:18;2.08;;;1.15;;
25946;SDS011;13745;51.470;9.894;2022-10-17T14:46:10;2.97;;;1.23;;
25946;SDS011;13745;51.470;9.894;2022-10-17T14:49:02;3.83;;;1.35;;
25946;SDS011;13745;51.470;9.894;2022-10-17T14:55:16;8.10;;;1.33;;
25946;SDS011;13745;51.470;9.894;2022-10-17T14:58:16;6.28;;;1.73;;
25946;SDS011;13745;51.470;9.894;2022-10-17T15:01:03;5.32;;;1.70;;
25946;SDS011;13745;51.470;9.894;2022-10-17T15:03:48;3.55;;;1.60;;
25946;SDS011;13745;51.470;9.894;2022-10-17T15:06:34;4.18;;;1.50;;
25946;SDS011;13745;51.470;9.894;2022-10-17T15:09:22;8.95;;;2.00;;
25946;SDS011;13745;51.470;9.894;2022-10-17T15:12:13;2.65;;;1.40;;
25946;SDS011;13745;51.470;9.894;2022-10-17T15:15:00;5.93;;;1.88;;
25946;SDS011;13745;51.470;9.894;2022-10-17T15:17:45;6.63;;;1.38;;
25946;SDS011;13745;51.470;9.894;2022-10-17T15:20:32;3.20;;;1.77;;
25946;SDS011;13745;51.470;9.894;2022-10-17T15:23:18;2.95;;;1.23;;
25946;SDS011;13745;51.470;9.894;2022-10-17T15:26:09;4.35;;;1.50;;
25946;SDS011;13745;51.470;9.894;2022-10-17T15:28:58;4.03;;;1.60;;
25946;SDS011;13745;51.470;9.894;2022-10-17T15:31:44;5.43;;;2.05;;
25946;SDS011;13745;51.470;9.894;2022-10-17T15:34:30;5.25;;;2.28;;
25946;SDS011;13745;51.470;9.894;2022-10-17T15:37:17;4.15;;;1.40;;
25946;SDS011;13745;51.470;9.894;2022-10-17T15:40:06;7.57;;;1.35;;
25946;SDS011;13745;51.470;9.894;2022-10-17T15:42:56;8.93;;;1.40;;
25946;SDS011;13745;51.470;9.894;2022-10-17T15:45:42;4.32;;;1.80;;
25946;SDS011;13745;51.470;9.894;2022-10-17T15:48:28;4.38;;;1.48;;
25946;SDS011;13745;51.470;9.894;2022-10-17T15:51:16;5.00;;;1.50;;
25946;SDS011;13745;51.470;9.894;2022-10-17T15:54:02;4.90;;;1.67;;
25946;SDS011;13745;51.470;9.894;2022-10-17T15:56:51;2.70;;;1.70;;
25946;SDS011;13745;51.470;9.894;2022-10-17T15:59:40;4.28;;;1.25;;
25946;SDS011;13745;51.470;9.894;2022-10-17T16:02:26;3.95;;;1.77;;
25946;SDS011;13745;51.470;9.894;2022-10-17T16:05:13;5.22;;;2.25;;
25946;SDS011;13745;51.470;9.894;2022-10-17T16:08:01;8.40;;;1.90;;
25946;SDS011;13745;51.470;9.894;2022-10-17T16:10:47;6.72;;;1.98;;
25946;SDS011;13745;51.470;9.894;2022-10-17T16:13:33;3.88;;;1.65;;
25946;SDS011;13745;51.470;9.894;2022-10-17T16:16:20;6.53;;;1.83;;
25946;SDS011;13745;51.470;9.894;2022-10-17T16:19:06;7.20;;;2.42;;
25946;SDS011;13745;51.470;9.894;2022-10-17T16:21:53;9.02;;;2.38;;
25946;SDS011;13745;51.470;9.894;2022-10-17T16:24:38;7.55;;;1.90;;
25946;SDS011;13745;51.470;9.894;2022-10-17T16:27:24;3.63;;;1.58;;
25946;SDS011;13745;51.470;9.894;2022-10-17T16:30:10;2.60;;;1.27;;
25946;SDS011;13745;51.470;9.894;2022-10-17T16:32:58;5.97;;;1.90;;
25946;SDS011;13745;51.470;9.894;2022-10-17T16:35:44;10.98;;;1.60;;
25946;SDS011;13745;51.470;9.894;2022-10-17T16:38:32;6.72;;;2.00;;
25946;SDS011;13745;51.470;9.894;2022-10-17T16:41:20;3.30;;;2.00;;
25946;SDS011;13745;51.470;9.894;2022-10-17T16:44:10;3.55;;;2.30;;
25946;SDS011;13745;51.470;9.894;2022-10-17T16:46:58;7.03;;;1.85;;
25946;SDS011;13745;51.470;9.894;2022-10-17T16:49:45;5.50;;;2.10;;
25946;SDS011;13745;51.470;9.894;2022-10-17T16:52:31;3.88;;;1.70;;
25946;SDS011;13745;51.470;9.894;2022-10-17T16:55:17;3.70;;;1.70;;
25946;SDS011;13745;51.470;9.894;2022-10-17T16:58:02;6.07;;;2.75;;
25946;SDS011;13745;51.470;9.894;2022-10-17T17:00:48;5.10;;;1.70;;
25946;SDS011;13745;51.470;9.894;2022-10-17T17:03:34;7.13;;;2.22;;
25946;SDS011;13745;51.470;9.894;2022-10-17T17:06:23;4.68;;;2.35;;
25946;SDS011;13745;51.470;9.894;2022-10-17T17:09:10;7.32;;;2.03;;
25946;SDS011;13745;51.470;9.894;2022-10-17T17:11:55;5.20;;;2.55;;
25946;SDS011;13745;51.470;9.894;2022-10-17T17:14:41;4.47;;;2.10;;
25946;SDS011;13745;51.470;9.894;2022-10-17T17:17:27;12.80;;;2.85;;
25946;SDS011;13745;51.470;9.894;2022-10-17T17:20:13;4.82;;;2.55;;
25946;SDS011;13745;51.470;9.894;2022-10-17T17:23:00;3.25;;;2.33;;